Terminal Aerodrome Forecast
Issued by NWS

Home | Current Version | Previous Version | Text Only | Print | Product List | Glossary Off
Versions: 1 2 3 4 5 6 7 8 9 10 11 12 13 14 15 16 17 18 19 20 21 22 23 24 25 26 27 28

000
FTUS45 KGGW 231100
TAFGDV
TAF
KGDV 231120Z 2312/2412 09008KT P6SM BKN180
     FM231800 09014KT P6SM BKN060
     FM240000 10012KT P6SM BKN045
     FM240300 10008KT P6SM VCSH BKN025
      AMD LTD TO CLD VIS AND WIND=

USA.gov is the U.S. government's official web portal to all federal, state and local government web resources and services.